createdAt,value
2022-08-24T00:00:26.051Z,1.83
2022-08-24T00:02:52.984Z,1.35
2022-08-24T00:05:22.469Z,2.00
2022-08-24T00:07:50.353Z,2.13
2022-08-24T00:10:19.110Z,1.80
2022-08-24T00:12:45.952Z,3.80
2022-08-24T00:15:14.593Z,1.80
2022-08-24T00:17:41.476Z,1.85
2022-08-24T00:20:10.407Z,2.25
2022-08-24T00:22:37.873Z,2.00
2022-08-24T00:25:05.627Z,1.70
2022-08-24T00:27:32.668Z,1.50
2022-08-24T00:29:59.418Z,1.55
2022-08-24T00:32:26.154Z,1.58
2022-08-24T00:34:58.976Z,1.73
2022-08-24T00:37:28.769Z,1.85
2022-08-24T00:39:56.292Z,1.85
2022-08-24T00:42:24.398Z,1.50
2022-08-24T00:44:52.012Z,1.90
2022-08-24T00:47:33.329Z,1.77
2022-08-24T00:50:06.084Z,1.50
2022-08-24T00:52:56.657Z,2.00
2022-08-24T00:55:31.004Z,2.42
2022-08-24T00:58:03.407Z,1.60
2022-08-24T01:00:35.130Z,2.08
2022-08-24T01:03:05.426Z,1.83
2022-08-24T01:05:34.147Z,2.30
2022-08-24T01:08:02.290Z,2.20
2022-08-24T01:10:32.860Z,2.38
2022-08-24T01:13:03.803Z,1.90
2022-08-24T01:15:33.284Z,1.60
2022-08-24T01:18:20.188Z,1.70
2022-08-24T01:20:57.204Z,2.03
2022-08-24T01:23:36.992Z,1.65
2022-08-24T01:26:05.024Z,1.85
2022-08-24T01:28:32.168Z,1.70
2022-08-24T01:30:59.699Z,1.50
2022-08-24T01:33:29.655Z,1.77
2022-08-24T01:36:03.561Z,1.83
2022-08-24T01:38:30.360Z,1.40
2022-08-24T01:41:02.155Z,2.88
2022-08-24T01:43:29.027Z,1.88
2022-08-24T01:45:57.384Z,1.55
2022-08-24T01:48:28.315Z,1.58
2022-08-24T01:50:55.376Z,1.77
2022-08-24T01:53:22.336Z,1.90
2022-08-24T01:55:49.098Z,1.88
2022-08-24T01:58:16.087Z,1.85
2022-08-24T02:00:44.780Z,3.90
2022-08-24T02:03:11.571Z,2.25
2022-08-24T02:05:38.253Z,1.50
2022-08-24T02:08:05.312Z,1.95
2022-08-24T02:10:32.760Z,1.92
2022-08-24T02:12:59.842Z,2.08
2022-08-24T02:15:34.463Z,1.58
2022-08-24T02:20:29.211Z,1.73
2022-08-24T02:22:57.153Z,1.65
2022-08-24T02:25:24.858Z,1.83
2022-08-24T02:27:51.743Z,1.88
2022-08-24T02:30:19.019Z,4.22
2022-08-24T02:32:46.080Z,3.03
2022-08-24T02:35:15.216Z,2.10
2022-08-24T02:37:43.643Z,1.92
2022-08-24T02:40:12.621Z,2.08
2022-08-24T02:42:39.805Z,1.65
2022-08-24T02:45:07.367Z,1.65
2022-08-24T02:47:38.515Z,1.77
2022-08-24T02:50:10.027Z,1.80
2022-08-24T02:52:41.424Z,1.50
2022-08-24T02:55:12.033Z,1.88
2022-08-24T02:57:40.639Z,1.63
2022-08-24T03:00:11.916Z,2.20
2022-08-24T03:02:42.345Z,2.13
2022-08-24T03:05:10.372Z,1.83
2022-08-24T03:07:37.549Z,2.10
2022-08-24T03:10:06.538Z,2.38
2022-08-24T03:12:35.031Z,2.17
2022-08-24T03:15:02.537Z,2.05
2022-08-24T03:17:33.815Z,1.75
2022-08-24T03:20:02.234Z,3.72
2022-08-24T03:22:28.982Z,2.10
2022-08-24T03:24:55.681Z,2.03
2022-08-24T03:27:22.849Z,2.40
2022-08-24T03:29:49.947Z,1.33
2022-08-24T03:32:17.036Z,2.03
2022-08-24T03:34:43.873Z,2.15
2022-08-24T03:37:11.891Z,1.80
2022-08-24T03:39:39.365Z,1.85
2022-08-24T03:42:06.748Z,1.90
2022-08-24T03:44:33.660Z,1.92
2022-08-24T03:47:01.747Z,2.20
2022-08-24T03:49:29.211Z,1.77
2022-08-24T03:51:55.925Z,1.65
2022-08-24T03:54:22.636Z,1.58
2022-08-24T03:56:49.336Z,2.30
2022-08-24T03:59:19.844Z,1.90
2022-08-24T04:01:46.864Z,1.80
2022-08-24T04:04:13.556Z,1.88
2022-08-24T04:06:46.578Z,3.35
2022-08-24T04:09:14.137Z,2.00
2022-08-24T04:11:41.695Z,1.83
2022-08-24T04:14:08.873Z,1.77
2022-08-24T04:16:57.626Z,1.80
2022-08-24T04:19:25.296Z,2.10
2022-08-24T04:21:51.955Z,2.15
2022-08-24T04:24:19.737Z,1.55
2022-08-24T04:26:46.677Z,2.08
2022-08-24T04:29:15.022Z,2.10
2022-08-24T04:31:45.699Z,1.55
2022-08-24T04:34:14.825Z,1.95
2022-08-24T04:36:43.208Z,2.45
2022-08-24T04:39:10.109Z,2.00
2022-08-24T04:41:36.958Z,1.92
2022-08-24T04:44:04.309Z,2.10
2022-08-24T04:46:31.278Z,2.17
2022-08-24T04:48:58.875Z,1.90
2022-08-24T04:51:26.998Z,1.73
2022-08-24T04:53:57.226Z,2.50
2022-08-24T04:56:25.165Z,2.20
2022-08-24T04:58:58.124Z,2.50
2022-08-24T05:01:30.477Z,2.10
2022-08-24T05:03:59.288Z,2.10
2022-08-24T05:06:31.753Z,2.30
2022-08-24T05:08:59.012Z,2.55
2022-08-24T05:11:27.177Z,1.90
2022-08-24T05:13:55.784Z,2.13
2022-08-24T05:16:23.915Z,2.80
2022-08-24T05:18:52.232Z,2.15
2022-08-24T05:21:22.379Z,2.70
2022-08-24T05:23:49.324Z,2.38
2022-08-24T05:26:26.026Z,2.10
2022-08-24T05:28:58.060Z,2.75
2022-08-24T05:31:29.961Z,2.72
2022-08-24T05:33:56.834Z,2.50
2022-08-24T05:36:32.184Z,2.67
2022-08-24T05:39:01.680Z,2.47
2022-08-24T05:41:29.076Z,2.80
2022-08-24T05:43:55.892Z,2.63
2022-08-24T05:46:22.867Z,3.13
2022-08-24T05:48:53.185Z,3.25
2022-08-24T05:51:21.534Z,2.65
2022-08-24T05:53:48.416Z,3.30
2022-08-24T05:56:18.184Z,2.70
2022-08-24T05:58:45.415Z,2.97
2022-08-24T06:01:22.893Z,2.55
2022-08-24T06:03:50.964Z,2.40
2022-08-24T06:06:21.832Z,2.42
2022-08-24T06:08:51.880Z,2.40
2022-08-24T06:11:29.947Z,2.35
2022-08-24T06:14:01.209Z,2.95
2022-08-24T06:16:28.534Z,2.45
2022-08-24T06:18:55.296Z,2.47
2022-08-24T06:21:24.961Z,2.40
2022-08-24T06:23:55.779Z,2.95
2022-08-24T06:26:41.211Z,2.00
2022-08-24T06:29:09.039Z,2.50
2022-08-24T06:31:43.083Z,2.22
2022-08-24T06:34:15.200Z,2.05
2022-08-24T06:36:42.109Z,2.42
2022-08-24T06:39:10.226Z,2.40
2022-08-24T06:41:38.167Z,2.25
2022-08-24T06:44:05.895Z,2.85
2022-08-24T06:46:33.245Z,2.53
2022-08-24T06:49:01.036Z,2.15
2022-08-24T06:51:28.677Z,2.13
2022-08-24T06:54:01.280Z,2.45
2022-08-24T06:56:30.504Z,2.35
2022-08-24T06:58:59.416Z,2.35
2022-08-24T07:01:28.428Z,2.28
2022-08-24T07:03:58.280Z,2.33
2022-08-24T07:06:25.756Z,2.00
2022-08-24T07:08:54.026Z,2.55
2022-08-24T07:11:22.083Z,2.17
2022-08-24T07:13:49.740Z,2.85
2022-08-24T07:16:18.977Z,2.15
2022-08-24T07:18:49.881Z,2.50
2022-08-24T07:21:19.977Z,2.38
2022-08-24T07:23:48.569Z,1.90
2022-08-24T07:26:23.307Z,2.47
2022-08-24T07:28:58.639Z,2.40
2022-08-24T07:31:25.553Z,2.10
2022-08-24T07:33:54.560Z,1.95
2022-08-24T07:36:23.223Z,1.80
2022-08-24T07:38:54.215Z,1.50
2022-08-24T07:41:51.283Z,1.52
2022-08-24T07:44:10.125Z,1.70
2022-08-24T07:46:37.937Z,1.60
2022-08-24T07:49:12.817Z,1.30
2022-08-24T07:51:53.547Z,1.60
2022-08-24T07:54:21.125Z,1.80
2022-08-24T07:56:48.899Z,2.05
2022-08-24T07:59:15.758Z,1.70
2022-08-24T08:01:43.034Z,1.77
2022-08-24T08:04:12.908Z,1.35
2022-08-24T08:06:41.068Z,1.30
2022-08-24T08:09:07.742Z,1.40
2022-08-24T08:11:35.225Z,1.40
2022-08-24T08:14:01.868Z,1.92
2022-08-24T08:16:28.553Z,1.63
2022-08-24T08:19:11.202Z,1.35
2022-08-24T08:22:10.576Z,1.42
2022-08-24T08:24:39.893Z,1.15
2022-08-24T08:27:06.808Z,1.58
2022-08-24T08:29:38.619Z,1.13
2022-08-24T08:32:05.641Z,1.15
2022-08-24T08:34:32.875Z,1.35
2022-08-24T08:37:00.108Z,1.23
2022-08-24T08:39:27.611Z,1.10
2022-08-24T08:42:15.199Z,1.10
2022-08-24T08:44:52.884Z,1.30
2022-08-24T08:47:45.443Z,0.80
2022-08-24T08:50:40.488Z,1.20
2022-08-24T08:56:09.667Z,1.23
2022-08-24T08:58:59.335Z,0.73
2022-08-24T09:02:16.120Z,1.10
2022-08-24T09:05:07.965Z,0.70
2022-08-24T09:07:59.850Z,0.77
2022-08-24T09:10:39.525Z,0.88
2022-08-24T09:13:36.801Z,0.80
2022-08-24T09:16:12.412Z,0.98
2022-08-24T09:18:57.756Z,1.02
2022-08-24T09:21:43.040Z,1.75
2022-08-24T09:24:09.725Z,0.88
2022-08-24T09:26:36.896Z,1.00
2022-08-24T09:29:18.972Z,1.10
2022-08-24T09:32:16.381Z,1.10
2022-08-24T09:35:11.712Z,1.02
2022-08-24T09:38:12.911Z,0.90
2022-08-24T09:41:04.237Z,0.70
2022-08-24T09:44:04.497Z,1.00
2022-08-24T09:46:43.003Z,0.98
2022-08-24T09:49:47.476Z,0.70
2022-08-24T09:52:40.872Z,0.60
2022-08-24T09:55:26.843Z,0.90
2022-08-24T09:58:08.591Z,0.73
2022-08-24T10:00:46.432Z,0.70
2022-08-24T10:03:37.990Z,0.70
2022-08-24T10:06:23.820Z,0.70
2022-08-24T10:08:59.965Z,0.88
2022-08-24T10:11:59.269Z,0.55
2022-08-24T10:14:40.152Z,0.90
2022-08-24T10:17:12.523Z,0.80
2022-08-24T10:20:02.817Z,0.60
2022-08-24T10:22:51.012Z,0.85
2022-08-24T10:25:39.104Z,0.80
2022-08-24T10:28:34.287Z,0.90
2022-08-24T10:31:13.076Z,0.77
2022-08-24T10:33:51.597Z,0.93
2022-08-24T10:36:29.491Z,0.93
2022-08-24T10:39:20.487Z,0.85
2022-08-24T10:42:32.816Z,0.70
2022-08-24T10:45:31.437Z,0.63
2022-08-24T10:48:26.168Z,0.60
2022-08-24T10:51:30.312Z,0.82
2022-08-24T10:53:58.923Z,0.70
2022-08-24T10:57:07.301Z,0.73
2022-08-24T11:00:01.627Z,0.57
2022-08-24T11:02:28.785Z,0.85
2022-08-24T11:04:57.721Z,0.70
2022-08-24T11:07:24.543Z,0.40
2022-08-24T11:10:00.300Z,0.75
2022-08-24T11:12:36.744Z,0.70
2022-08-24T11:15:28.064Z,0.90
2022-08-24T11:18:00.770Z,0.75
2022-08-24T11:20:31.949Z,0.60
2022-08-24T11:23:05.312Z,0.73
2022-08-24T11:25:34.971Z,0.63
2022-08-24T11:28:20.228Z,1.00
2022-08-24T11:30:46.929Z,0.70
2022-08-24T11:33:35.114Z,0.80
2022-08-24T11:36:03.020Z,0.70
2022-08-24T11:38:34.505Z,0.90
2022-08-24T11:41:32.664Z,0.75
2022-08-24T11:44:10.003Z,1.15
2022-08-24T11:46:48.438Z,0.68
2022-08-24T11:49:29.291Z,0.98
2022-08-24T11:52:16.208Z,0.82
2022-08-24T11:55:05.258Z,1.20
2022-08-24T11:57:47.735Z,0.50
2022-08-24T12:00:19.510Z,0.70
2022-08-24T12:03:00.574Z,0.73
2022-08-24T12:06:06.012Z,0.80
2022-08-24T12:11:39.744Z,0.80
2022-08-24T12:14:25.976Z,0.80
2022-08-24T12:17:32.952Z,0.80
2022-08-24T12:20:14.117Z,0.85
2022-08-24T12:22:42.600Z,0.70
2022-08-24T12:25:31.295Z,0.70
2022-08-24T12:28:00.912Z,0.93
2022-08-24T12:30:28.044Z,0.60
2022-08-24T12:33:06.988Z,0.77
2022-08-24T12:35:45.872Z,0.95
2022-08-24T12:38:21.691Z,0.85
2022-08-24T12:41:03.402Z,0.77
2022-08-24T12:43:52.011Z,0.70
2022-08-24T12:46:23.434Z,0.75
2022-08-24T12:49:03.469Z,0.70
2022-08-24T12:51:39.115Z,0.70
2022-08-24T12:54:33.218Z,0.60
2022-08-24T12:57:15.592Z,0.90
2022-08-24T12:59:50.457Z,0.80
2022-08-24T13:02:17.151Z,0.85
2022-08-24T13:04:49.703Z,0.70
2022-08-24T13:07:19.056Z,0.60
2022-08-24T13:10:06.749Z,0.55
2022-08-24T13:12:39.238Z,0.52
2022-08-24T13:15:24.333Z,0.95
2022-08-24T13:18:13.961Z,1.02
2022-08-24T13:20:43.731Z,0.63
2022-08-24T13:23:13.970Z,0.65
2022-08-24T13:25:55.842Z,0.63
2022-08-24T13:28:25.480Z,0.50
2022-08-24T13:31:11.079Z,0.70
2022-08-24T13:33:41.026Z,0.65
2022-08-24T13:36:07.907Z,0.93
2022-08-24T13:38:34.568Z,0.70
2022-08-24T13:41:34.111Z,0.93
2022-08-24T13:44:27.797Z,0.68
2022-08-24T13:47:18.612Z,0.60
2022-08-24T13:50:21.632Z,0.50
2022-08-24T13:53:13.664Z,0.85
2022-08-24T13:55:53.653Z,0.68
2022-08-24T13:58:33.089Z,0.68
2022-08-24T14:01:18.878Z,0.88
2022-08-24T14:04:12.484Z,0.60
2022-08-24T14:07:00.256Z,0.80
2022-08-24T14:10:08.222Z,0.63
2022-08-24T14:13:13.357Z,0.60
2022-08-24T14:16:15.411Z,0.70
2022-08-24T14:18:54.316Z,1.08
2022-08-24T14:21:33.943Z,0.98
2022-08-24T14:24:36.400Z,0.65
2022-08-24T14:27:05.999Z,1.05
2022-08-24T14:29:41.876Z,1.00
2022-08-24T14:32:12.669Z,0.68
2022-08-24T14:35:24.480Z,0.85
2022-08-24T14:37:56.150Z,0.80
2022-08-24T14:40:38.119Z,0.80
2022-08-24T14:43:30.054Z,0.70
2022-08-24T14:46:35.936Z,1.13
2022-08-24T14:51:48.144Z,0.68
2022-08-24T14:54:42.221Z,1.30
2022-08-24T14:57:40.766Z,0.60
2022-08-24T15:00:22.364Z,1.02
2022-08-24T15:03:08.304Z,0.70
2022-08-24T15:05:35.149Z,0.70
2022-08-24T15:08:27.019Z,1.13
2022-08-24T15:11:02.781Z,0.77
2022-08-24T15:13:38.100Z,0.60
2022-08-24T15:16:10.942Z,0.73
2022-08-24T15:19:08.926Z,1.00
2022-08-24T15:22:04.614Z,0.60
2022-08-24T15:25:00.837Z,1.52
2022-08-24T15:27:57.530Z,0.70
2022-08-24T15:30:29.571Z,0.55
2022-08-24T15:33:10.724Z,0.90
2022-08-24T15:35:43.690Z,0.88
2022-08-24T15:38:22.540Z,0.88
2022-08-24T15:40:54.059Z,0.63
2022-08-24T15:43:21.345Z,0.80
2022-08-24T15:45:51.784Z,0.95
2022-08-24T15:48:24.589Z,0.60
2022-08-24T15:50:56.103Z,0.70
2022-08-24T15:53:39.251Z,1.05
2022-08-24T15:56:20.934Z,0.60
2022-08-24T15:58:49.111Z,0.90
2022-08-24T16:01:34.429Z,0.63
2022-08-24T16:04:04.970Z,0.75
2022-08-24T16:06:31.523Z,0.70
2022-08-24T16:09:08.967Z,0.63
2022-08-24T16:11:47.918Z,0.70
2022-08-24T16:14:23.292Z,0.55
2022-08-24T16:16:50.241Z,0.47
2022-08-24T16:19:28.056Z,0.80
2022-08-24T16:22:03.297Z,0.60
2022-08-24T16:24:36.488Z,0.75
2022-08-24T16:27:15.757Z,0.80
2022-08-24T16:29:45.706Z,0.98
2022-08-24T16:32:33.662Z,0.65
2022-08-24T16:35:21.440Z,0.55
2022-08-24T16:37:48.280Z,0.63
2022-08-24T16:40:15.754Z,0.70
2022-08-24T16:42:42.721Z,0.70
2022-08-24T16:45:12.660Z,1.13
2022-08-24T16:47:39.930Z,0.95
2022-08-24T16:50:07.825Z,1.17
2022-08-24T16:52:34.514Z,0.85
2022-08-24T16:55:01.683Z,0.52
2022-08-24T16:57:31.064Z,0.75
2022-08-24T16:59:58.747Z,0.52
2022-08-24T17:02:28.652Z,0.93
2022-08-24T17:04:56.256Z,0.63
2022-08-24T17:07:28.605Z,1.13
2022-08-24T17:09:56.691Z,0.77
2022-08-24T17:12:24.156Z,0.90
2022-08-24T17:14:50.865Z,1.10
2022-08-24T17:17:22.985Z,0.73
2022-08-24T17:19:53.186Z,0.77
2022-08-24T17:22:20.543Z,1.08
2022-08-24T17:24:47.515Z,0.80
2022-08-24T17:27:14.613Z,0.68
2022-08-24T17:29:43.576Z,0.95
2022-08-24T17:32:10.728Z,0.70
2022-08-24T17:34:37.532Z,0.60
2022-08-24T17:37:04.651Z,0.70
2022-08-24T17:39:34.181Z,1.00
2022-08-24T17:42:01.836Z,0.82
2022-08-24T17:44:32.104Z,0.90
2022-08-24T17:47:02.547Z,0.90
2022-08-24T17:49:31.495Z,1.00
2022-08-24T17:51:59.056Z,1.02
2022-08-24T17:54:28.080Z,1.05
2022-08-24T17:56:55.765Z,0.63
2022-08-24T17:59:28.789Z,1.00
2022-08-24T18:02:01.960Z,1.08
2022-08-24T18:04:33.523Z,1.25
2022-08-24T18:07:03.451Z,1.30
2022-08-24T18:09:37.445Z,0.93
2022-08-24T18:12:08.705Z,1.10
2022-08-24T18:14:35.928Z,1.33
2022-08-24T18:17:06.739Z,1.00
2022-08-24T18:19:34.667Z,1.10
2022-08-24T18:22:02.074Z,1.17
2022-08-24T18:24:37.836Z,1.20
2022-08-24T18:27:13.724Z,1.55
2022-08-24T18:29:43.384Z,1.40
2022-08-24T18:32:14.139Z,1.30
2022-08-24T18:34:41.601Z,1.25
2022-08-24T18:37:08.673Z,1.67
2022-08-24T18:39:35.591Z,1.00
2022-08-24T18:42:06.168Z,1.10
2022-08-24T18:44:32.877Z,1.08
2022-08-24T18:47:00.363Z,1.30
2022-08-24T18:49:28.517Z,1.10
2022-08-24T18:51:55.704Z,1.70
2022-08-24T18:54:26.049Z,1.40
2022-08-24T18:56:52.940Z,1.63
2022-08-24T18:59:21.530Z,1.50
2022-08-24T19:02:09.699Z,1.50
2022-08-24T19:04:42.489Z,1.52
2022-08-24T19:07:09.252Z,1.50
2022-08-24T19:09:35.947Z,1.60
2022-08-24T19:12:04.334Z,1.50
2022-08-24T19:14:32.071Z,1.50
2022-08-24T19:16:58.879Z,1.80
2022-08-24T19:19:25.793Z,1.63
2022-08-24T19:21:53.634Z,1.85
2022-08-24T19:24:25.193Z,1.45
2022-08-24T19:26:52.476Z,1.67
2022-08-24T19:29:38.882Z,1.70
2022-08-24T19:32:10.145Z,1.30
2022-08-24T19:34:43.188Z,1.55
2022-08-24T19:37:10.039Z,1.83
2022-08-24T19:39:36.705Z,1.60
2022-08-24T19:42:04.349Z,1.38
2022-08-24T19:44:51.673Z,1.90
2022-08-24T19:47:19.767Z,1.52
2022-08-24T19:49:48.144Z,1.48
2022-08-24T19:52:15.164Z,1.70
2022-08-24T19:54:44.663Z,1.88
2022-08-24T19:57:48.304Z,1.60
2022-08-24T20:00:24.844Z,2.40
2022-08-24T20:02:54.150Z,1.60
2022-08-24T20:05:23.073Z,2.10
2022-08-24T20:07:50.206Z,1.77
2022-08-24T20:10:20.535Z,1.95
2022-08-24T20:12:47.305Z,1.80
2022-08-24T20:15:14.082Z,2.42
2022-08-24T20:17:40.988Z,2.35
2022-08-24T20:20:09.392Z,1.80
2022-08-24T20:22:36.052Z,1.88
2022-08-24T20:25:03.655Z,2.03
2022-08-24T20:27:31.325Z,2.10
2022-08-24T20:29:59.484Z,2.60
2022-08-24T20:32:27.967Z,2.47
2022-08-24T20:34:54.728Z,1.75
2022-08-24T20:37:24.676Z,1.88
2022-08-24T20:39:53.600Z,2.47
2022-08-24T20:42:21.455Z,2.20
2022-08-24T20:44:49.616Z,2.33
2022-08-24T20:47:17.009Z,1.80
2022-08-24T20:49:44.756Z,2.63
2022-08-24T20:52:11.697Z,2.03
2022-08-24T20:54:40.025Z,1.98
2022-08-24T20:57:11.501Z,2.88
2022-08-24T20:59:38.115Z,1.95
2022-08-24T21:02:05.484Z,1.80
2022-08-24T21:04:32.299Z,1.83
2022-08-24T21:06:59.172Z,2.05
2022-08-24T21:09:26.245Z,1.30
2022-08-24T21:11:52.860Z,2.28
2022-08-24T21:14:22.128Z,1.73
2022-08-24T21:16:48.992Z,2.08
2022-08-24T21:19:18.685Z,2.00
2022-08-24T21:21:47.213Z,2.17
2022-08-24T21:24:15.559Z,1.90
2022-08-24T21:26:42.609Z,1.98
2022-08-24T21:29:10.563Z,1.90
2022-08-24T21:31:37.935Z,2.53
2022-08-24T21:34:24.339Z,1.70
2022-08-24T21:36:52.570Z,2.00
2022-08-24T21:39:19.751Z,2.08
2022-08-24T21:41:46.651Z,1.80
2022-08-24T21:44:13.454Z,2.92
2022-08-24T21:46:40.921Z,1.95
2022-08-24T21:49:12.294Z,1.85
2022-08-24T21:51:39.817Z,2.53
2022-08-24T21:54:06.531Z,2.45
2022-08-24T21:56:34.491Z,1.88
2022-08-24T21:59:01.387Z,1.80
2022-08-24T22:01:28.968Z,1.90
2022-08-24T22:03:56.317Z,3.45
2022-08-24T22:06:29.129Z,1.52
2022-08-24T22:09:00.075Z,1.67
2022-08-24T22:11:26.978Z,1.88
2022-08-24T22:13:56.611Z,1.75
2022-08-24T22:16:24.955Z,1.88
2022-08-24T22:18:51.743Z,2.35
2022-08-24T22:21:22.159Z,1.98
2022-08-24T22:23:49.581Z,2.08
2022-08-24T22:26:16.593Z,1.65
2022-08-24T22:28:43.400Z,2.00
2022-08-24T22:31:27.351Z,1.88
2022-08-24T22:33:56.189Z,1.57
2022-08-24T22:36:25.971Z,1.88
2022-08-24T22:38:54.794Z,1.90
2022-08-24T22:41:24.338Z,2.00
2022-08-24T22:44:11.773Z,1.90
2022-08-24T22:46:39.383Z,1.80
2022-08-24T22:49:08.735Z,1.73
2022-08-24T22:51:36.180Z,1.80
2022-08-24T22:54:03.193Z,1.98
2022-08-24T22:56:36.964Z,1.92
2022-08-24T22:59:05.208Z,1.90
2022-08-24T23:01:35.836Z,1.83
2022-08-24T23:04:05.397Z,2.28
2022-08-24T23:06:34.736Z,1.67
2022-08-24T23:09:01.799Z,2.00
2022-08-24T23:11:28.620Z,2.15
2022-08-24T23:13:57.767Z,1.73
2022-08-24T23:16:26.671Z,1.73
2022-08-24T23:19:12.812Z,1.80
2022-08-24T23:21:40.321Z,1.75
2022-08-24T23:24:07.952Z,1.95
2022-08-24T23:26:35.784Z,2.20
2022-08-24T23:29:03.864Z,1.77
2022-08-24T23:31:31.615Z,2.20
2022-08-24T23:33:58.987Z,2.13
2022-08-24T23:36:27.832Z,2.33
2022-08-24T23:38:57.572Z,2.20
2022-08-24T23:41:27.290Z,1.92
2022-08-24T23:43:55.297Z,2.13
2022-08-24T23:46:22.775Z,2.05
2022-08-24T23:48:55.030Z,2.30
2022-08-24T23:51:22.728Z,2.10
2022-08-24T23:53:50.427Z,3.00
2022-08-24T23:56:25.964Z,1.92
2022-08-24T23:58:53.231Z,1.60
